Time;durP1;ratioP1;P1;durP2;ratioP2;P2;SDS_P1;SDS_P2;PMS_P1;PMS_P2;Temp;Humidity;BMP_temperature;BMP_pressure;BME280_temperature;BME280_humidity;BME280_pressure;Samples;Min_cycle;Max_cycle;Signal;HPM_P1;HPM_P2
2023/09/23 00:01:14;;;;;;;0.22;0.22;;;21.80;51.30;;;;;;5109207;27;45422;-64
2023/09/23 00:03:41;;;;;;;0.50;0.50;;;21.80;51.20;;;;;;5109557;27;45399;-64
2023/09/23 00:06:08;;;;;;;0.50;0.50;;;21.80;51.30;;;;;;5109015;27;47242;-64
2023/09/23 00:08:37;;;;;;;1.88;0.30;;;21.80;51.30;;;;;;5108703;27;45330;-65
2023/09/23 00:11:04;;;;;;;0.70;0.30;;;21.80;51.30;;;;;;5108953;27;45361;-65
2023/09/23 00:13:32;;;;;;;0.50;0.50;;;21.80;51.30;;;;;;5109203;27;45624;-65
2023/09/23 00:15:59;;;;;;;0.30;0.30;;;21.80;51.30;;;;;;5108680;27;45456;-64
2023/09/23 00:18:26;;;;;;;0.45;0.28;;;21.70;51.30;;;;;;5108782;27;45394;-65
2023/09/23 00:20:53;;;;;;;0.57;0.57;;;21.70;51.30;;;;;;5109317;27;45307;-64
2023/09/23 00:23:21;;;;;;;0.57;0.50;;;21.70;51.30;;;;;;5109009;27;45107;-64
2023/09/23 00:25:49;;;;;;;0.70;0.50;;;21.70;51.40;;;;;;5108561;27;46405;-64
2023/09/23 00:28:16;;;;;;;0.30;0.30;;;21.70;51.30;;;;;;5108509;27;45361;-66
2023/09/23 00:30:45;;;;;;;0.32;0.32;;;21.70;51.40;;;;;;5108800;27;45374;-66
2023/09/23 00:33:16;;;;;;;0.55;0.32;;;21.70;51.30;;;;;;5108877;27;45376;-64
2023/09/23 00:35:44;;;;;;;0.57;0.40;;;21.70;51.40;;;;;;5108028;27;45421;-66
2023/09/23 00:38:12;;;;;;;0.30;0.30;;;21.60;51.30;;;;;;5108524;27;45175;-64
2023/09/23 00:40:39;;;;;;;0.40;0.32;;;21.60;51.30;;;;;;5108850;27;45338;-64
2023/09/23 00:43:11;;;;;;;0.40;0.40;;;21.60;51.30;;;;;;5108701;27;45476;-66
2023/09/23 00:45:38;;;;;;;0.20;0.20;;;21.60;51.30;;;;;;5107771;27;45719;-65
2023/09/23 00:48:08;;;;;;;0.30;0.30;;;21.60;51.90;;;;;;5108202;27;45226;-64
2023/09/23 00:50:35;;;;;;;0.20;0.20;;;21.60;51.30;;;;;;5108398;27;45350;-64
2023/09/23 00:53:02;;;;;;;0.55;0.30;;;21.60;51.30;;;;;;5108419;27;45310;-64
2023/09/23 00:55:31;;;;;;;0.22;0.22;;;21.60;51.30;;;;;;5107737;27;48657;-64
2023/09/23 00:58:00;;;;;;;0.47;0.47;;;21.50;51.40;;;;;;5108081;27;45389;-64
2023/09/23 01:00:30;;;;;;;0.55;0.50;;;21.50;51.30;;;;;;5108078;27;45358;-64
2023/09/23 01:02:58;;;;;;;0.15;0.15;;;21.50;51.30;;;;;;5108333;27;45425;-63
2023/09/23 01:05:27;;;;;;;0.25;0.20;;;21.50;51.30;;;;;;5107888;27;46726;-64
2023/09/23 01:07:55;;;;;;;0.30;0.30;;;21.50;51.30;;;;;;5107786;27;45238;-64
2023/09/23 01:10:21;;;;;;;0.65;0.40;;;21.50;51.30;;;;;;5107997;27;45251;-64
2023/09/23 01:12:48;;;;;;;0.43;0.35;;;21.50;51.30;;;;;;5107869;27;45347;-64
2023/09/23 01:15:18;;;;;;;0.70;0.32;;;21.40;51.30;;;;;;5107715;27;45441;-63
2023/09/23 01:17:49;;;;;;;0.60;0.43;;;21.40;51.30;;;;;;5107589;27;45303;-64
2023/09/23 01:20:16;;;;;;;0.28;0.28;;;21.40;51.30;;;;;;5107818;27;45357;-64
2023/09/23 01:22:45;;;;;;;0.40;0.20;;;21.40;51.20;;;;;;5107862;27;45343;-63
2023/09/23 01:25:12;;;;;;;0.30;0.30;;;21.40;51.30;;;;;;5107420;27;45479;-64
2023/09/23 01:27:39;;;;;;;0.30;0.30;;;21.40;51.90;;;;;;5107457;27;45350;-63
2023/09/23 01:30:07;;;;;;;0.57;0.40;;;21.30;51.30;;;;;;5107696;27;45643;-64
2023/09/23 01:32:40;;;;;;;0.50;0.22;;;21.40;51.30;;;;;;5107561;27;45605;-64
2023/09/23 01:35:09;;;;;;;0.40;0.38;;;21.30;51.40;;;;;;5107034;27;45492;-64
2023/09/23 01:37:36;;;;;;;0.45;0.30;;;21.30;51.30;;;;;;5107499;27;45262;-63
2023/09/23 01:40:05;;;;;;;0.52;0.47;;;21.30;51.30;;;;;;5107550;27;45360;-63
2023/09/23 01:42:33;;;;;;;0.35;0.30;;;21.30;51.40;;;;;;5107499;27;45264;-65
2023/09/23 01:44:59;;;;;;;0.17;0.17;;;21.30;51.40;;;;;;5107043;27;45311;-64
2023/09/23 01:47:26;;;;;;;0.45;0.30;;;21.20;51.30;;;;;;5107108;27;45411;-64
2023/09/23 01:49:53;;;;;;;0.30;0.30;;;21.20;51.40;;;;;;5107310;27;45279;-64
2023/09/23 01:52:20;;;;;;;0.20;0.20;;;21.20;51.40;;;;;;5107398;27;45675;-64
2023/09/23 01:54:47;;;;;;;0.43;0.40;;;21.20;51.40;;;;;;5106947;27;46435;-63
2023/09/23 01:57:17;;;;;;;0.30;0.22;;;21.20;51.30;;;;;;5106017;27;45234;-63
2023/09/23 01:59:44;;;;;;;1.05;0.50;;;21.20;51.30;;;;;;5107148;27;45296;-64
2023/09/23 02:02:10;;;;;;;0.32;0.32;;;21.20;51.40;;;;;;5107209;27;45322;-64
2023/09/23 02:04:39;;;;;;;0.40;0.40;;;21.20;51.40;;;;;;5106586;27;45402;-64
2023/09/23 02:07:06;;;;;;;0.75;0.40;;;21.10;51.30;;;;;;5107143;27;45474;-64
2023/09/23 02:09:34;;;;;;;0.20;0.20;;;21.10;51.30;;;;;;5106893;27;45365;-63
2023/09/23 02:12:01;;;;;;;1.25;0.40;;;21.10;51.40;;;;;;5107106;27;45274;-63
2023/09/23 02:14:29;;;;;;;0.65;0.28;;;21.10;51.30;;;;;;5106580;27;45316;-63
2023/09/23 02:16:57;;;;;;;0.40;0.40;;;21.10;51.30;;;;;;5106914;27;45364;-63
2023/09/23 02:19:24;;;;;;;0.30;0.30;;;21.10;51.40;;;;;;5107014;27;45290;-64
2023/09/23 02:21:51;;;;;;;0.28;0.28;;;21.10;51.40;;;;;;5106942;27;45497;-64
2023/09/23 02:24:18;;;;;;;0.25;0.25;;;21.00;51.40;;;;;;5106579;27;45312;-63
2023/09/23 02:26:46;;;;;;;0.25;0.25;;;21.00;52.00;;;;;;5106556;27;45266;-64
2023/09/23 02:29:14;;;;;;;0.50;0.50;;;21.00;51.40;;;;;;5106741;27;45276;-64
2023/09/23 02:31:46;;;;;;;0.40;0.40;;;21.00;51.40;;;;;;5106944;27;45337;-63
2023/09/23 02:34:16;;;;;;;0.35;0.35;;;21.00;51.50;;;;;;5106364;27;46411;-65
2023/09/23 02:36:45;;;;;;;0.60;0.40;;;21.00;51.40;;;;;;5106257;27;45278;-63
2023/09/23 02:39:15;;;;;;;0.35;0.35;;;21.00;51.40;;;;;;5104025;27;45446;-64
2023/09/23 02:41:45;;;;;;;1.13;0.40;;;21.00;51.40;;;;;;5106690;27;45605;-64
2023/09/23 02:44:12;;;;;;;0.20;0.20;;;20.90;51.40;;;;;;5106306;27;46275;-63
2023/09/23 02:46:41;;;;;;;0.30;0.30;;;20.90;51.30;;;;;;5106370;27;45369;-64
2023/09/23 02:49:10;;;;;;;0.43;0.30;;;20.90;51.30;;;;;;5106412;27;45221;-63
2023/09/23 02:51:37;;;;;;;0.40;0.40;;;20.90;51.40;;;;;;5106631;27;45437;-63
2023/09/23 02:54:05;;;;;;;0.30;0.30;;;20.90;51.30;;;;;;5106206;27;45219;-64
2023/09/23 02:56:33;;;;;;;0.32;0.32;;;20.90;51.40;;;;;;5106349;27;45278;-64
2023/09/23 02:59:00;;;;;;;0.28;0.28;;;20.90;51.40;;;;;;5106283;27;45264;-64
2023/09/23 03:01:27;;;;;;;1.27;0.50;;;20.80;51.40;;;;;;5106571;27;45380;-63
2023/09/23 03:03:55;;;;;;;0.55;0.40;;;20.80;51.40;;;;;;5105889;27;46994;-63
2023/09/23 03:06:23;;;;;;;0.43;0.43;;;20.80;51.40;;;;;;5106152;27;45319;-63
2023/09/23 03:08:54;;;;;;;0.55;0.30;;;20.80;51.40;;;;;;5106976;27;45326;-63
2023/09/23 03:11:21;;;;;;;0.30;0.30;;;20.80;51.50;;;;;;5109870;27;45278;-63
2023/09/23 03:13:49;;;;;;;0.30;0.30;;;20.80;51.40;;;;;;5109430;27;45330;-63
2023/09/23 03:16:27;;;;;;;0.35;0.35;;;20.80;51.40;;;;;;5109761;27;45265;-63
2023/09/23 03:18:59;;;;;;;0.40;0.40;;;20.80;51.40;;;;;;5109965;27;45409;-64
2023/09/23 03:21:28;;;;;;;0.32;0.32;;;20.80;51.30;;;;;;5110079;27;45299;-63
2023/09/23 03:23:55;;;;;;;0.35;0.35;;;20.70;51.30;;;;;;5109172;27;48254;-63
2023/09/23 03:26:22;;;;;;;0.93;0.40;;;20.70;52.00;;;;;;5109504;27;45264;-63
2023/09/23 03:28:49;;;;;;;0.88;0.17;;;20.70;51.30;;;;;;5109574;27;45268;-63
2023/09/23 03:31:16;;;;;;;0.75;0.40;;;20.70;51.30;;;;;;5109706;27;45329;-63
2023/09/23 03:33:44;;;;;;;0.43;0.30;;;20.70;51.30;;;;;;5109212;27;46405;-63
2023/09/23 03:36:14;;;;;;;0.28;0.28;;;20.70;51.30;;;;;;5109164;27;45484;-64
2023/09/23 03:38:43;;;;;;;0.30;0.30;;;20.70;51.30;;;;;;5109567;27;45280;-64
2023/09/23 03:41:11;;;;;;;0.30;0.30;;;20.70;51.30;;;;;;5109477;27;45367;-64
2023/09/23 03:43:39;;;;;;;1.25;0.32;;;20.70;51.40;;;;;;5108895;27;45519;-64
2023/09/23 03:46:11;;;;;;;0.32;0.32;;;20.60;51.30;;;;;;5109226;27;45318;-64
2023/09/23 03:48:38;;;;;;;0.47;0.47;;;20.60;51.30;;;;;;5109269;27;45134;-63
2023/09/23 03:51:06;;;;;;;0.63;0.50;;;20.60;51.30;;;;;;5109411;27;45197;-63
2023/09/23 03:53:33;;;;;;;0.35;0.35;;;20.60;51.30;;;;;;5108812;27;46239;-63
2023/09/23 03:56:03;;;;;;;0.60;0.43;;;20.60;51.40;;;;;;5108835;27;45393;-63
2023/09/23 03:58:30;;;;;;;0.40;0.40;;;20.60;51.40;;;;;;5109191;27;45185;-63
2023/09/23 04:00:57;;;;;;;0.30;0.30;;;20.50;51.30;;;;;;5109219;27;45189;-63
2023/09/23 04:03:23;;;;;;;0.30;0.30;;;20.60;51.40;;;;;;5108542;27;46408;-65
2023/09/23 04:05:57;;;;;;;0.68;0.43;;;20.50;51.30;;;;;;5108895;27;45388;-63
2023/09/23 04:08:24;;;;;;;0.50;0.50;;;20.50;51.30;;;;;;5108956;27;45392;-63
2023/09/23 04:10:51;;;;;;;0.30;0.30;;;20.50;51.30;;;;;;5108896;27;45414;-63
2023/09/23 04:13:19;;;;;;;0.57;0.25;;;20.50;51.40;;;;;;5108503;27;45614;-64
2023/09/23 04:15:45;;;;;;;0.35;0.35;;;20.50;51.30;;;;;;5108871;27;45391;-65
2023/09/23 04:18:12;;;;;;;0.20;0.20;;;20.50;51.30;;;;;;5108998;27;45309;-63
2023/09/23 04:20:43;;;;;;;0.50;0.40;;;20.50;51.30;;;;;;5105461;27;45599;-64
2023/09/23 04:23:10;;;;;;;0.22;0.22;;;20.40;51.30;;;;;;5108383;27;45520;-64
2023/09/23 04:25:37;;;;;;;0.38;0.15;;;20.40;51.30;;;;;;5108719;27;45395;-62
2023/09/23 04:28:05;;;;;;;0.75;0.40;;;20.50;51.40;;;;;;5108984;27;45262;-62
2023/09/23 04:30:35;;;;;;;0.32;0.32;;;20.40;51.30;;;;;;5106106;27;45378;-62
2023/09/23 04:33:02;;;;;;;0.75;0.60;;;20.40;51.90;;;;;;5108281;27;46513;-64
2023/09/23 04:35:30;;;;;;;0.22;0.22;;;20.40;51.90;;;;;;5108119;27;45355;-64
2023/09/23 04:37:57;;;;;;;0.40;0.30;;;20.40;51.30;;;;;;5108441;27;45376;-62
2023/09/23 04:40:24;;;;;;;1.30;0.88;;;20.40;51.80;;;;;;5108551;27;45462;-65
2023/09/23 04:42:50;;;;;;;0.40;0.30;;;20.40;51.20;;;;;;5108083;27;46595;-64
2023/09/23 04:45:19;;;;;;;1.65;0.30;;;20.40;51.50;;;;;;5108219;27;45339;-65
2023/09/23 04:47:50;;;;;;;0.68;0.43;;;20.30;51.20;;;;;;5108488;27;45353;-64
2023/09/23 04:50:17;;;;;;;0.30;0.30;;;20.30;51.30;;;;;;5108386;27;45426;-63
2023/09/23 04:52:44;;;;;;;0.47;0.40;;;20.30;51.30;;;;;;5108071;27;45479;-64
2023/09/23 04:55:11;;;;;;;0.40;0.40;;;20.30;51.30;;;;;;5108064;27;45304;-65
2023/09/23 04:57:38;;;;;;;0.30;0.30;;;20.30;51.30;;;;;;5108090;27;45318;-63
2023/09/23 05:00:09;;;;;;;0.55;0.30;;;20.30;51.30;;;;;;5108139;27;45277;-64
2023/09/23 05:02:36;;;;;;;0.47;0.40;;;20.30;51.30;;;;;;5107876;27;45447;-63
2023/09/23 05:05:05;;;;;;;0.73;0.40;;;20.30;51.30;;;;;;5107767;27;45350;-64
2023/09/23 05:07:32;;;;;;;0.88;0.35;;;20.30;51.40;;;;;;5108016;27;45322;-63
2023/09/23 05:09:59;;;;;;;0.35;0.30;;;20.20;51.20;;;;;;5108130;27;45313;-64
2023/09/23 05:12:26;;;;;;;0.35;0.35;;;20.20;51.20;;;;;;5107537;27;46622;-64
2023/09/23 05:14:53;;;;;;;0.40;0.40;;;20.20;51.80;;;;;;5107669;27;45251;-64
2023/09/23 05:17:21;;;;;;;0.20;0.20;;;20.20;51.20;;;;;;5107824;27;45292;-63
2023/09/23 05:19:48;;;;;;;0.20;0.20;;;20.20;51.20;;;;;;5107936;27;45363;-64
2023/09/23 05:22:16;;;;;;;0.30;0.30;;;20.20;51.30;;;;;;5107463;27;46660;-64
2023/09/23 05:24:47;;;;;;;0.63;0.20;;;20.20;51.30;;;;;;5107588;27;45280;-64
2023/09/23 05:27:14;;;;;;;0.45;0.30;;;20.20;51.30;;;;;;5107854;27;45366;-64
2023/09/23 05:29:45;;;;;;;0.50;0.50;;;20.20;51.30;;;;;;5107906;27;45369;-64
2023/09/23 05:32:12;;;;;;;0.50;0.30;;;20.20;51.30;;;;;;5107462;27;48190;-64
2023/09/23 05:34:39;;;;;;;0.30;0.30;;;20.10;51.30;;;;;;5107258;27;45371;-63
2023/09/23 05:37:11;;;;;;;0.40;0.40;;;20.10;51.20;;;;;;5107635;27;45408;-63
2023/09/23 05:39:44;;;;;;;0.40;0.40;;;20.10;51.30;;;;;;5107790;27;45304;-64
2023/09/23 05:42:11;;;;;;;0.43;0.43;;;20.10;51.30;;;;;;5107323;27;45516;-64
2023/09/23 05:44:38;;;;;;;0.40;0.40;;;20.10;51.30;;;;;;5107616;27;45346;-64
2023/09/23 05:47:05;;;;;;;0.40;0.40;;;20.10;51.30;;;;;;5107483;27;45342;-64
2023/09/23 05:49:32;;;;;;;0.43;0.43;;;20.10;51.30;;;;;;5107648;27;45442;-64
2023/09/23 05:51:58;;;;;;;1.27;0.38;;;20.10;51.20;;;;;;5106952;27;46663;-64
2023/09/23 05:54:25;;;;;;;0.32;0.32;;;20.10;51.30;;;;;;5107427;27;45284;-64
2023/09/23 05:56:54;;;;;;;0.50;0.50;;;20.10;51.20;;;;;;5107177;27;45350;-64
2023/09/23 05:59:21;;;;;;;0.43;0.43;;;20.10;51.30;;;;;;5107386;27;45476;-64
2023/09/23 06:01:47;;;;;;;0.52;0.50;;;20.10;51.20;;;;;;5107221;27;45532;-64
2023/09/23 06:04:14;;;;;;;1.17;0.50;;;20.10;51.20;;;;;;5106876;27;45293;-64
2023/09/23 06:06:41;;;;;;;0.63;0.40;;;20.00;51.20;;;;;;5107404;27;45589;-63
2023/09/23 06:09:08;;;;;;;0.50;0.50;;;20.00;51.20;;;;;;5107163;27;45187;-64
2023/09/23 06:11:35;;;;;;;0.38;0.38;;;20.00;51.20;;;;;;5106866;27;45343;-64
2023/09/23 06:14:03;;;;;;;0.40;0.40;;;20.00;51.20;;;;;;5106751;27;45421;-64
2023/09/23 06:16:30;;;;;;;0.88;0.40;;;20.00;51.20;;;;;;5106969;27;45267;-64
2023/09/23 06:18:57;;;;;;;0.43;0.43;;;20.00;51.20;;;;;;5107059;27;45235;-63
2023/09/23 06:21:23;;;;;;;2.80;0.55;;;20.00;51.30;;;;;;5106693;27;46257;-63
2023/09/23 06:23:50;;;;;;;0.75;0.60;;;20.00;51.20;;;;;;5106711;27;45372;-63
2023/09/23 06:26:17;;;;;;;0.43;0.40;;;20.00;51.20;;;;;;5106918;27;45386;-63
2023/09/23 06:28:49;;;;;;;0.47;0.47;;;20.00;51.80;;;;;;5107070;27;45480;-64
2023/09/23 06:31:17;;;;;;;0.38;0.38;;;20.00;51.20;;;;;;5106571;27;45336;-63
2023/09/23 06:33:44;;;;;;;2.38;0.55;;;20.00;51.20;;;;;;5106634;27;45340;-63
2023/09/23 06:36:10;;;;;;;0.30;0.30;;;20.00;51.20;;;;;;5106654;27;45278;-65
2023/09/23 06:38:38;;;;;;;0.30;0.30;;;20.00;51.20;;;;;;5106833;27;45243;-64
2023/09/23 06:41:05;;;;;;;0.77;0.77;;;20.00;51.30;;;;;;5106383;27;46652;-64
2023/09/23 06:43:31;;;;;;;0.50;0.40;;;20.00;51.20;;;;;;5105756;27;45300;-64
2023/09/23 06:45:59;;;;;;;0.55;0.55;;;20.00;51.10;;;;;;5106659;27;45432;-63
2023/09/23 06:48:27;;;;;;;0.30;0.30;;;20.00;51.20;;;;;;5106706;27;45318;-63
2023/09/23 06:50:58;;;;;;;2.08;0.60;;;20.00;51.20;;;;;;5106249;27;46361;-64
2023/09/23 06:53:25;;;;;;;0.40;0.40;;;20.00;51.20;;;;;;5106235;27;45337;-63
2023/09/23 06:55:52;;;;;;;0.45;0.45;;;20.00;51.10;;;;;;5106418;27;45243;-63
2023/09/23 06:58:18;;;;;;;0.65;0.60;;;19.90;51.70;;;;;;5106700;27;45408;-64
2023/09/23 07:00:45;;;;;;;0.50;0.50;;;20.00;51.20;;;;;;5106084;27;46654;-64
2023/09/23 07:03:12;;;;;;;1.92;0.82;;;20.00;51.10;;;;;;5106165;27;45471;-64
2023/09/23 07:05:40;;;;;;;0.60;0.60;;;20.00;51.10;;;;;;5106452;27;45480;-63
2023/09/23 07:08:07;;;;;;;1.00;0.40;;;20.00;51.00;;;;;;5106674;27;45219;-64
2023/09/23 07:10:35;;;;;;;0.43;0.43;;;20.00;51.00;;;;;;5105776;27;46671;-63
2023/09/23 07:13:03;;;;;;;0.30;0.30;;;20.00;51.00;;;;;;5106168;27;45295;-64
2023/09/23 07:15:31;;;;;;;0.55;0.50;;;20.00;50.90;;;;;;5106187;27;45296;-64
2023/09/23 07:17:58;;;;;;;0.30;0.30;;;20.00;50.90;;;;;;5106372;27;45272;-64
2023/09/23 07:20:25;;;;;;;0.38;0.38;;;20.00;50.90;;;;;;5106308;27;45280;-64
2023/09/23 07:22:54;;;;;;;0.57;0.57;;;20.00;51.00;;;;;;5106001;27;45496;-63
2023/09/23 07:25:20;;;;;;;0.40;0.40;;;20.00;50.90;;;;;;5106328;27;45367;-63
2023/09/23 07:27:47;;;;;;;0.68;0.60;;;20.00;50.90;;;;;;5106342;27;45419;-64
2023/09/23 07:30:18;;;;;;;0.40;0.40;;;20.00;50.80;;;;;;5105616;27;48151;-64
2023/09/23 07:32:45;;;;;;;0.30;0.30;;;20.00;50.90;;;;;;5105745;27;45429;-64
2023/09/23 07:35:12;;;;;;;0.75;0.60;;;20.00;50.90;;;;;;5105844;27;45207;-63
2023/09/23 07:37:38;;;;;;;0.50;0.50;;;20.00;50.80;;;;;;5106181;27;45109;-64
2023/09/23 07:40:08;;;;;;;0.35;0.35;;;20.00;50.80;;;;;;5105580;27;46331;-63
2023/09/23 07:42:35;;;;;;;0.40;0.40;;;20.00;50.80;;;;;;5105385;27;45357;-64
2023/09/23 07:45:02;;;;;;;0.50;0.50;;;20.00;50.90;;;;;;5106090;27;45123;-64
2023/09/23 07:47:28;;;;;;;1.80;0.43;;;20.00;50.90;;;;;;5105926;27;45319;-63
2023/09/23 07:49:55;;;;;;;0.50;0.50;;;20.00;50.90;;;;;;5105323;27;45270;-64
2023/09/23 07:52:22;;;;;;;0.55;0.40;;;20.10;50.90;;;;;;5105176;27;45296;-64
2023/09/23 07:54:49;;;;;;;0.40;0.40;;;20.10;50.90;;;;;;5105785;27;45437;-64
2023/09/23 07:57:17;;;;;;;0.50;0.32;;;20.10;51.00;;;;;;5108795;27;45256;-64
2023/09/23 07:59:47;;;;;;;0.40;0.40;;;20.10;50.90;;;;;;5109059;27;47293;-65
2023/09/23 08:02:14;;;;;;;0.50;0.50;;;20.10;50.90;;;;;;5108923;27;45315;-65
2023/09/23 08:04:40;;;;;;;0.40;0.40;;;20.10;50.90;;;;;;5109069;27;45244;-64
2023/09/23 08:07:07;;;;;;;0.50;0.50;;;20.10;50.80;;;;;;5109408;27;45294;-63
2023/09/23 08:09:34;;;;;;;0.32;0.32;;;20.10;51.00;;;;;;5108752;27;45252;-63
2023/09/23 08:12:01;;;;;;;1.88;0.50;;;20.10;51.00;;;;;;5108763;27;45324;-63
2023/09/23 08:14:30;;;;;;;0.30;0.30;;;20.10;51.00;;;;;;5106254;27;45427;-63
2023/09/23 08:16:57;;;;;;;0.60;0.60;;;20.10;50.90;;;;;;5106892;27;45419;-64
2023/09/23 08:19:24;;;;;;;2.58;0.40;;;20.10;50.90;;;;;;5109336;27;46539;-65
2023/09/23 08:21:51;;;;;;;0.40;0.40;;;20.10;50.50;;;;;;5112249;27;45478;-64
2023/09/23 08:24:19;;;;;;;0.50;0.50;;;20.10;50.30;;;;;;5108624;27;45378;-64
2023/09/23 08:26:45;;;;;;;1.02;0.60;;;20.10;50.40;;;;;;5113364;27;45374;-64
2023/09/23 08:29:14;;;;;;;2.20;0.70;;;20.10;50.40;;;;;;5108002;27;46387;-64
2023/09/23 08:31:42;;;;;;;1.95;0.60;;;20.10;50.50;;;;;;5108258;27;45172;-64
2023/09/23 08:34:10;;;;;;;0.68;0.50;;;20.10;50.50;;;;;;5108023;27;45346;-65
2023/09/23 08:36:36;;;;;;;1.58;0.50;;;20.10;50.60;;;;;;5107862;27;45380;-65
2023/09/23 08:39:07;;;;;;;0.43;0.43;;;20.10;50.60;;;;;;5109030;27;45486;-64
2023/09/23 08:41:34;;;;;;;1.55;0.45;;;20.20;50.70;;;;;;5108423;27;45385;-64
2023/09/23 08:44:01;;;;;;;0.40;0.40;;;20.20;50.60;;;;;;5108306;27;45449;-65
2023/09/23 08:46:28;;;;;;;1.67;0.80;;;20.20;50.70;;;;;;5108468;27;45415;-68
2023/09/23 08:48:56;;;;;;;1.70;0.70;;;20.20;50.80;;;;;;5108454;27;45695;-64
2023/09/23 08:51:24;;;;;;;0.63;0.60;;;20.20;50.90;;;;;;5107730;27;45290;-65
2023/09/23 08:53:51;;;;;;;0.52;0.50;;;20.30;50.90;;;;;;5108307;27;45381;-65
2023/09/23 08:56:18;;;;;;;4.70;0.90;;;20.30;51.10;;;;;;5108331;27;45427;-65
2023/09/23 08:58:45;;;;;;;1.20;0.80;;;20.20;51.40;;;;;;5107725;27;46671;-65
2023/09/23 09:01:11;;;;;;;3.25;0.82;;;20.20;51.50;;;;;;5107912;27;45378;-65
2023/09/23 09:03:38;;;;;;;1.85;0.63;;;20.20;51.50;;;;;;5108068;27;45458;-64
2023/09/23 09:06:16;;;;;;;0.80;0.60;;;20.20;51.20;;;;;;5107887;27;45621;-65
2023/09/23 09:08:43;;;;;;;1.23;1.00;;;20.20;50.90;;;;;;5107937;27;46675;-65
2023/09/23 09:11:10;;;;;;;1.05;0.60;;;20.20;51.20;;;;;;5107757;27;45264;-65
2023/09/23 09:13:37;;;;;;;2.60;0.60;;;20.20;51.60;;;;;;5107893;27;45382;-65
2023/09/23 09:16:05;;;;;;;3.50;2.70;;;20.20;51.60;;;;;;5108467;27;45283;-65
2023/09/23 09:18:32;;;;;;;3.65;1.55;;;20.20;51.50;;;;;;5107907;27;46418;-65
2023/09/23 09:20:59;;;;;;;1.67;1.13;;;20.30;51.30;;;;;;5108509;27;45306;-65
2023/09/23 09:23:29;;;;;;;2.60;1.10;;;20.30;50.80;;;;;;5107808;27;45361;-65
2023/09/23 09:25:56;;;;;;;7.78;1.40;;;20.30;50.80;;;;;;5108249;27;45288;-65
2023/09/23 09:28:24;;;;;;;4.13;2.65;;;20.30;51.00;;;;;;5108126;27;45494;-65
2023/09/23 09:30:55;;;;;;;3.17;1.80;;;20.30;51.10;;;;;;5107501;27;45326;-64
2023/09/23 09:33:23;;;;;;;3.15;2.88;;;20.30;51.60;;;;;;5107487;27;45189;-66
2023/09/23 09:35:50;;;;;;;4.68;2.30;;;20.30;51.40;;;;;;5107412;27;45315;-65
2023/09/23 09:38:17;;;;;;;8.20;4.82;;;20.30;51.10;;;;;;5106998;27;46692;-65
2023/09/23 09:40:46;;;;;;;3.53;2.10;;;20.30;51.10;;;;;;5107729;27;45432;-66
2023/09/23 09:43:13;;;;;;;3.03;1.23;;;20.40;51.10;;;;;;5107604;27;45270;-66
2023/09/23 09:45:42;;;;;;;0.80;0.80;;;20.40;50.50;;;;;;5107908;27;45533;-66
2023/09/23 09:48:09;;;;;;;1.67;0.90;;;20.30;50.30;;;;;;5107858;27;46458;-69
2023/09/23 09:50:38;;;;;;;1.52;0.50;;;20.30;50.10;;;;;;5107082;27;45304;-65
2023/09/23 09:53:06;;;;;;;1.48;0.65;;;20.30;50.10;;;;;;5107544;27;45307;-66
2023/09/23 09:55:33;;;;;;;1.17;0.60;;;20.30;50.30;;;;;;5107446;27;45504;-66
2023/09/23 09:58:02;;;;;;;1.45;0.70;;;20.40;50.00;;;;;;5106637;27;47534;-65
2023/09/23 10:00:30;;;;;;;1.13;0.50;;;20.50;50.00;;;;;;5106863;27;45201;-66
2023/09/23 10:02:59;;;;;;;0.90;0.70;;;20.50;50.30;;;;;;5107371;27;45394;-65
2023/09/23 10:05:32;;;;;;;1.67;0.82;;;20.60;50.30;;;;;;5107284;27;45381;-65
2023/09/23 10:07:59;;;;;;;1.15;0.70;;;20.60;50.60;;;;;;5106735;27;46387;-66
2023/09/23 10:10:31;;;;;;;0.68;0.63;;;20.70;50.00;;;;;;5106868;27;45380;-66
2023/09/23 10:12:59;;;;;;;1.52;0.60;;;20.70;49.90;;;;;;5106680;27;45365;-66
2023/09/23 10:15:29;;;;;;;10.73;1.23;;;20.70;49.00;;;;;;5106714;27;45229;-67
2023/09/23 10:17:57;;;;;;;0.95;0.60;;;20.70;48.90;;;;;;5106647;27;46372;-67
2023/09/23 10:20:32;;;;;;;6.28;5.60;;;20.80;48.70;;;;;;5106282;27;45362;-67
2023/09/23 10:22:59;;;;;;;7.57;5.43;;;20.80;48.50;;;;;;5107550;27;45391;-67
2023/09/23 10:25:37;;;;;;;4.97;3.10;;;20.90;47.80;;;;;;5107253;27;45530;-66
2023/09/23 10:28:05;;;;;;;6.15;3.35;;;20.90;47.80;;;;;;5106337;27;47410;-67
2023/09/23 10:30:35;;;;;;;7.80;3.13;;;21.00;48.50;;;;;;5107397;27;45569;-69
2023/09/23 10:33:03;;;;;;;6.60;1.20;;;21.00;48.20;;;;;;5107763;27;45428;-66
2023/09/23 10:35:30;;;;;;;2.40;0.82;;;21.10;47.30;;;;;;5103580;27;45498;-68
2023/09/23 10:37:57;;;;;;;1.85;1.33;;;21.20;46.60;;;;;;5105243;27;46368;-65
2023/09/23 10:40:25;;;;;;;2.17;0.95;;;21.30;47.20;;;;;;5113166;27;45328;-66
2023/09/23 10:42:51;;;;;;;1.45;0.70;;;21.40;46.80;;;;;;5127329;27;45319;-66
2023/09/23 10:45:20;;;;;;;1.17;0.70;;;21.40;46.70;;;;;;5123818;27;45246;-67
2023/09/23 10:47:48;;;;;;;2.40;0.80;;;21.50;46.50;;;;;;5106600;27;46922;-66
2023/09/23 10:50:15;;;;;;;1.65;0.80;;;21.60;45.50;;;;;;5106484;27;45332;-67
2023/09/23 10:52:42;;;;;;;1.25;0.68;;;21.60;44.90;;;;;;5105228;27;45443;-65
2023/09/23 10:55:10;;;;;;;2.35;0.77;;;21.60;45.40;;;;;;5122925;27;45259;-66
2023/09/23 10:57:37;;;;;;;6.55;1.20;;;21.70;44.80;;;;;;5106056;27;45457;-66
2023/09/23 11:00:16;;;;;;;1.67;0.80;;;21.80;45.40;;;;;;5107416;27;45486;-66
2023/09/23 11:02:44;;;;;;;2.47;0.70;;;21.90;45.50;;;;;;5086062;27;45437;-67
2023/09/23 11:05:15;;;;;;;2.83;0.75;;;22.00;43.80;;;;;;5103713;27;45346;-67
2023/09/23 11:07:45;;;;;;;1.95;0.70;;;22.00;44.70;;;;;;5105765;27;45475;-67
2023/09/23 11:10:12;;;;;;;0.75;0.50;;;21.90;42.40;;;;;;5105275;27;45500;-65
2023/09/23 11:12:42;;;;;;;0.82;0.50;;;21.80;42.20;;;;;;5110594;27;45369;-66
2023/09/23 11:15:09;;;;;;;1.83;0.60;;;21.90;42.50;;;;;;5106119;27;45307;-67
2023/09/23 11:17:36;;;;;;;1.85;0.70;;;21.90;42.40;;;;;;5115807;27;45390;-67
2023/09/23 11:20:08;;;;;;;0.40;0.40;;;22.00;42.50;;;;;;5116606;27;45368;-67
2023/09/23 11:22:37;;;;;;;0.88;0.63;;;22.00;43.10;;;;;;5112154;27;45214;-67
2023/09/23 11:25:09;;;;;;;2.17;0.80;;;22.20;43.60;;;;;;5122618;27;45204;-67
2023/09/23 11:27:36;;;;;;;1.70;0.82;;;22.30;43.40;;;;;;5106255;27;46960;-67
2023/09/23 11:30:09;;;;;;;1.42;1.05;;;22.50;43.20;;;;;;5106740;27;45431;-66
2023/09/23 11:32:36;;;;;;;2.35;0.75;;;22.60;43.00;;;;;;5109344;27;45411;-66
2023/09/23 11:35:04;;;;;;;3.60;0.90;;;22.60;42.20;;;;;;5109532;27;45355;-65
2023/09/23 11:37:30;;;;;;;2.08;0.77;;;22.60;42.40;;;;;;5109319;27;45507;-66
2023/09/23 11:39:59;;;;;;;1.95;0.80;;;22.70;41.90;;;;;;5109520;27;45319;-65
2023/09/23 11:42:26;;;;;;;3.28;0.80;;;22.80;41.70;;;;;;5109067;27;45426;-66
2023/09/23 11:44:57;;;;;;;2.92;0.90;;;22.90;42.30;;;;;;5109505;27;45424;-68
2023/09/23 11:47:24;;;;;;;2.28;1.50;;;23.00;42.10;;;;;;5108050;27;46303;-67
2023/09/23 11:49:51;;;;;;;0.45;0.45;;;23.10;42.00;;;;;;5108373;27;45303;-71
2023/09/23 11:52:18;;;;;;;0.80;0.80;;;23.10;42.00;;;;;;5101188;27;45279;-68
2023/09/23 11:54:45;;;;;;;17.25;1.27;;;23.10;42.60;;;;;;5104516;27;45513;-66
2023/09/23 11:57:13;;;;;;;12.55;1.08;;;23.20;42.10;;;;;;5108344;27;45397;-69
2023/09/23 11:59:40;;;;;;;2.92;0.75;;;23.20;42.40;;;;;;5109398;27;45234;-68
2023/09/23 12:02:08;;;;;;;10.18;4.20;;;23.30;42.00;;;;;;5107872;27;45461;-69
2023/09/23 12:04:35;;;;;;;7.45;3.25;;;23.60;40.70;;;;;;5103213;27;45666;-70
2023/09/23 12:07:02;;;;;;;4.20;2.42;;;23.70;39.00;;;;;;5108517;27;47152;-68
2023/09/23 12:09:29;;;;;;;3.67;1.95;;;23.60;39.50;;;;;;5108601;27;45346;-71
2023/09/23 12:11:56;;;;;;;2.53;1.27;;;23.70;39.30;;;;;;5109855;27;45113;-66
2023/09/23 12:14:24;;;;;;;2.78;0.85;;;23.70;38.80;;;;;;5109115;27;45291;-66
2023/09/23 12:16:51;;;;;;;2.38;0.73;;;23.70;38.30;;;;;;5108211;27;46260;-67
2023/09/23 12:19:18;;;;;;;7.72;0.85;;;23.50;38.80;;;;;;5109152;27;45272;-67
2023/09/23 12:21:45;;;;;;;1.63;0.60;;;23.40;38.70;;;;;;5106144;27;45397;-67
2023/09/23 12:24:11;;;;;;;3.65;0.60;;;23.10;38.80;;;;;;5109126;27;45387;-66
2023/09/23 12:26:38;;;;;;;5.60;0.60;;;23.00;39.60;;;;;;5108459;27;45539;-65
2023/09/23 12:29:05;;;;;;;0.65;0.65;;;22.90;39.50;;;;;;5108892;27;45314;-65
2023/09/23 12:31:34;;;;;;;2.50;0.88;;;22.80;40.30;;;;;;5108601;27;45359;-65
2023/09/23 12:34:00;;;;;;;5.28;1.88;;;22.70;40.80;;;;;;5109195;27;45119;-66
2023/09/23 12:36:27;;;;;;;1.83;1.30;;;22.60;40.90;;;;;;5108300;27;45293;-66
2023/09/23 12:38:57;;;;;;;1.15;0.77;;;22.40;42.60;;;;;;5107815;27;45305;-65
2023/09/23 12:41:23;;;;;;;0.60;0.60;;;22.20;45.30;;;;;;5107753;27;45283;-66
2023/09/23 12:43:50;;;;;;;0.68;0.50;;;22.00;46.80;;;;;;5108354;27;45243;-65
2023/09/23 12:46:17;;;;;;;1.00;0.77;;;21.70;47.70;;;;;;5108443;27;46651;-65
2023/09/23 12:48:46;;;;;;;0.85;0.60;;;21.50;47.80;;;;;;5108512;27;45438;-65